Time;durP1;ratioP1;P1;durP2;ratioP2;P2;SDS_P1;SDS_P2;PMS_P1;PMS_P2;Temp;Humidity;BMP_temperature;BMP_pressure;BME280_temperature;BME280_humidity;BME280_pressure;Samples;Min_cycle;Max_cycle;Signal;HPM_P1;HPM_P2
2022/11/21 00:00:32;;;;;;;22.95;5.25;;;;;;;14.96;75.71;95500.28;5095608;28;20052;-61
2022/11/21 00:03:02;;;;;;;30.38;5.22;;;;;;;14.99;76.17;95513.25;5095661;28;20044;-61
2022/11/21 00:05:30;;;;;;;32.78;4.88;;;;;;;15.01;75.99;95499.97;5095766;28;20048;-61
2022/11/21 00:07:58;;;;;;;32.20;5.80;;;;;;;15.03;76.06;95511.25;5095643;28;20098;-61
2022/11/21 00:10:26;;;;;;;40.65;6.15;;;;;;;15.02;75.59;95483.22;5095330;28;20448;-62
2022/11/21 00:12:55;;;;;;;29.40;5.45;;;;;;;15.03;76.06;95475.19;5095461;28;20048;-61
2022/11/21 00:15:23;;;;;;;28.30;5.22;;;;;;;15.04;75.98;95454.97;5095418;28;20040;-61
2022/11/21 00:17:51;;;;;;;29.95;6.00;;;;;;;15.02;76.08;95449.81;5095475;28;20482;-61
2022/11/21 00:20:21;;;;;;;34.53;5.97;;;;;;;15.00;75.85;95464.06;5095462;28;20481;-61
2022/11/21 00:22:49;;;;;;;23.05;5.35;;;;;;;15.03;75.43;95472.56;5095330;28;20055;-61
2022/11/21 00:25:17;;;;;;;29.30;5.95;;;;;;;15.04;75.31;95462.88;5095343;28;20517;-62
2022/11/21 00:27:44;;;;;;;34.97;5.10;;;;;;;15.05;75.67;95466.38;5095143;28;20127;-61
2022/11/21 00:30:15;;;;;;;33.85;5.80;;;;;;;15.03;75.05;95469.94;5095140;28;20067;-61
2022/11/21 00:32:42;;;;;;;29.95;4.93;;;;;;;15.07;75.04;95467.06;5095224;28;20044;-62
2022/11/21 00:35:10;;;;;;;29.20;5.85;;;;;;;15.04;74.85;95476.03;5095177;28;20405;-61
2022/11/21 00:37:38;;;;;;;25.25;4.28;;;;;;;15.13;74.11;95466.63;5095120;28;20497;-61
2022/11/21 00:40:07;;;;;;;28.48;5.70;;;;;;;15.14;74.63;95449.88;5094919;28;20059;-61
2022/11/21 00:42:35;;;;;;;31.23;5.55;;;;;;;15.10;74.22;95445.78;5094981;28;20097;-61
2022/11/21 00:45:02;;;;;;;26.45;5.45;;;;;;;15.09;74.67;95450.22;5094960;28;20086;-61
2022/11/21 00:47:29;;;;;;;26.95;4.72;;;;;;;15.01;74.88;95449.94;5094840;28;20056;-61
2022/11/21 00:49:57;;;;;;;24.00;4.60;;;;;;;14.95;74.57;95429.31;5094466;28;20102;-61
2022/11/21 00:52:24;;;;;;;29.08;4.70;;;;;;;14.93;74.99;95421.53;5094779;28;20397;-62
2022/11/21 00:54:53;;;;;;;27.23;4.72;;;;;;;14.94;74.75;95423.22;5094899;28;20048;-61
2022/11/21 00:57:20;;;;;;;23.48;4.68;;;;;;;14.92;75.10;95406.69;5094749;28;20083;-61
2022/11/21 00:59:47;;;;;;;28.75;4.82;;;;;;;14.90;75.22;95403.34;5094431;28;20048;-61
2022/11/21 01:02:14;;;;;;;26.90;4.40;;;;;;;14.83;75.93;95386.31;5094447;28;20387;-61
2022/11/21 01:04:41;;;;;;;19.85;4.68;;;;;;;14.84;76.27;95380.09;5094584;28;20043;-61
2022/11/21 01:07:08;;;;;;;27.38;4.60;;;;;;;14.84;76.14;95378.28;5094574;28;20098;-61
2022/11/21 01:09:35;;;;;;;20.95;4.50;;;;;;;14.83;76.73;95381.88;5094420;28;20127;-62
2022/11/21 01:12:04;;;;;;;21.40;4.43;;;;;;;14.85;76.75;95392.31;5094212;28;20056;-61
2022/11/21 01:14:31;;;;;;;23.88;4.47;;;;;;;14.89;76.53;95391.97;5094369;28;20047;-61
2022/11/21 01:16:58;;;;;;;30.92;4.57;;;;;;;14.90;76.94;95385.75;5094258;28;20386;-61
2022/11/21 01:19:26;;;;;;;29.35;4.50;;;;;;;14.86;77.18;95381.66;5094230;28;20105;-61
2022/11/21 01:21:53;;;;;;;22.02;4.25;;;;;;;14.91;76.60;95371.63;5094241;28;20044;-62
2022/11/21 01:24:20;;;;;;;20.23;4.35;;;;;;;14.89;76.86;95373.53;5094214;28;20040;-61
2022/11/21 01:26:49;;;;;;;29.55;5.10;;;;;;;14.82;76.74;95384.63;5094142;28;20048;-62
2022/11/21 01:29:18;;;;;;;18.02;4.65;;;;;;;14.84;76.65;95386.19;5094138;28;20047;-61
2022/11/21 01:31:45;;;;;;;25.95;4.43;;;;;;;14.85;76.59;95376.50;5094007;28;20481;-61
2022/11/21 01:34:13;;;;;;;17.73;4.15;;;;;;;14.82;77.17;95364.44;5094059;28;20059;-62
2022/11/21 01:36:41;;;;;;;31.33;4.40;;;;;;;14.84;77.24;95359.88;5093956;28;20059;-61
2022/11/21 01:39:09;;;;;;;18.02;4.85;;;;;;;14.88;76.88;95355.22;5093966;28;20044;-62
2022/11/21 01:41:38;;;;;;;21.25;4.13;;;;;;;14.90;76.85;95341.00;5093748;28;20131;-61
2022/11/21 01:44:15;;;;;;;21.13;4.38;;;;;;;14.96;75.86;95338.88;5093874;28;20044;-61
2022/11/21 01:46:43;;;;;;;16.65;4.28;;;;;;;15.03;76.14;95337.44;5093833;28;20447;-62
2022/11/21 01:49:14;;;;;;;20.02;4.50;;;;;;;15.00;75.65;95335.03;5093754;28;20044;-61
2022/11/21 01:51:44;;;;;;;30.00;5.57;;;;;;;14.96;76.92;95341.50;5093807;28;20044;-62
2022/11/21 01:54:14;;;;;;;25.77;4.97;;;;;;;14.99;76.86;95320.22;5093786;28;20122;-61
2022/11/21 01:56:43;;;;;;;;;;;;;;;14.94;78.00;95328.44;5094057;28;20510;-61
2022/11/21 02:02:37;;;;;;;27.23;4.75;;;;;;;14.81;80.33;95286.41;5093662;28;20139;-61
2022/11/21 02:05:06;;;;;;;35.80;5.40;;;;;;;14.83;80.83;95287.13;5093477;28;20055;-61
2022/11/21 02:07:40;;;;;;;24.45;5.38;;;;;;;14.81;80.39;95283.75;5093536;28;20076;-61
2022/11/21 02:10:09;;;;;;;23.33;4.28;;;;;;;14.78;81.39;95265.59;5093104;28;20052;-61
2022/11/21 02:12:43;;;;;;;33.75;5.10;;;;;;;14.77;82.14;95267.34;5093278;28;20080;-61
2022/11/21 02:15:11;;;;;;;28.02;5.38;;;;;;;14.71;82.51;95309.91;5093336;28;20101;-61
2022/11/21 02:17:40;;;;;;;33.58;6.05;;;;;;;14.69;84.60;95326.78;5093419;28;20044;-61
2022/11/21 02:20:09;;;;;;;27.13;5.68;;;;;;;14.47;85.56;95349.38;5093240;28;20044;-61
2022/11/21 02:22:48;;;;;;;38.85;6.45;;;;;;;14.32;87.79;95346.06;5093299;28;20048;-61
2022/11/21 02:25:19;;;;;;;26.92;5.40;;;;;;;14.19;88.93;95325.09;5093142;28;20048;-61
2022/11/21 02:27:49;;;;;;;17.05;3.95;;;;;;;14.05;86.78;95305.06;5093233;28;20044;-61
2022/11/21 02:30:18;;;;;;;20.10;4.00;;;;;;;13.96;85.96;95330.19;5093234;28;20051;-61
2022/11/21 02:32:46;;;;;;;26.23;4.63;;;;;;;13.74;88.75;95298.41;5093077;28;20096;-61
2022/11/21 02:35:15;;;;;;;23.33;4.18;;;;;;;13.72;89.81;95302.06;5093207;28;20050;-61
2022/11/21 02:37:45;;;;;;;16.58;3.88;;;;;;;13.71;89.54;95308.28;5093038;28;20101;-61
2022/11/21 02:40:14;;;;;;;;;;;;;;;13.62;90.22;95315.88;5093431;28;20435;-61
2022/11/21 02:42:48;;;;;;;23.80;4.78;;;;;;;13.61;90.48;95318.59;5093111;28;19924;-61
2022/11/21 02:45:21;;;;;;;21.05;4.22;;;;;;;13.60;88.95;95299.38;5093036;28;20044;-61
2022/11/21 02:47:51;;;;;;;16.80;3.90;;;;;;;13.48;86.29;95292.28;5092951;28;20044;-61
2022/11/21 02:50:23;;;;;;;18.95;3.83;;;;;;;13.42;88.15;95293.56;5093022;28;20056;-61
2022/11/21 02:52:50;;;;;;;21.17;3.67;;;;;;;13.38;89.17;95285.06;5092948;28;20040;-61
2022/11/21 02:55:17;;;;;;;22.83;3.50;;;;;;;13.34;88.47;95272.25;5092878;28;20390;-61
2022/11/21 02:57:46;;;;;;;22.05;3.38;;;;;;;13.36;88.36;95267.72;5092883;28;20055;-61
2022/11/21 03:00:14;;;;;;;15.77;3.42;;;;;;;13.35;88.09;95268.69;5092800;28;20079;-61
2022/11/21 03:02:42;;;;;;;17.77;3.75;;;;;;;13.34;88.30;95259.94;5092847;28;20478;-61
2022/11/21 03:05:12;;;;;;;20.73;4.35;;;;;;;13.29;88.82;95264.69;5092877;28;20486;-61
2022/11/21 03:07:39;;;;;;;;;;;;;;;13.31;88.35;95267.22;5093330;28;20113;-61
2022/11/21 03:10:08;;;;;;;20.73;3.92;;;;;;;13.26;87.92;95264.91;5092607;28;19922;-61
2022/11/21 03:12:36;;;;;;;20.50;3.90;;;;;;;13.24;88.18;95266.78;5095043;28;20051;-61
2022/11/21 03:15:07;;;;;;;15.63;3.65;;;;;;;13.24;88.15;95266.78;5096678;28;20071;-61
2022/11/21 03:17:34;;;;;;;;;;;;;;;13.21;87.10;95259.97;5097096;28;20104;-62
2022/11/21 03:20:02;;;;;;;15.68;3.55;;;;;;;13.13;86.05;95259.69;5096421;28;19920;-61
2022/11/21 03:22:29;;;;;;;16.10;2.92;;;;;;;13.18;85.85;95260.19;5096543;28;20539;-62
2022/11/21 03:24:56;;;;;;;13.88;2.42;;;;;;;13.19;85.03;95264.50;5096482;28;20048;-62
2022/11/21 03:27:24;;;;;;;14.68;2.80;;;;;;;13.27;84.32;95264.81;5096431;28;20465;-61
2022/11/21 03:29:51;;;;;;;9.35;2.65;;;;;;;13.34;83.76;95265.22;5096351;28;20429;-61
2022/11/21 03:32:19;;;;;;;12.45;2.40;;;;;;;13.36;83.22;95263.31;5096402;28;20494;-62
2022/11/21 03:34:47;;;;;;;10.50;2.33;;;;;;;13.38;82.71;95264.06;5096249;28;20076;-61
2022/11/21 03:37:17;;;;;;;17.02;2.63;;;;;;;13.39;82.39;95254.38;5096302;28;20066;-62
2022/11/21 03:39:44;;;;;;;11.77;2.60;;;;;;;13.42;82.01;95255.97;5096184;28;20048;-61
2022/11/21 03:42:11;;;;;;;9.85;2.20;;;;;;;13.37;81.71;95251.88;5096223;28;20728;-61
2022/11/21 03:44:38;;;;;;;9.75;2.42;;;;;;;13.25;81.43;95250.94;5096076;28;20055;-61
2022/11/21 03:47:05;;;;;;;10.40;2.17;;;;;;;13.11;81.59;95241.41;5096041;28;20059;-62
2022/11/21 03:49:34;;;;;;;10.00;2.35;;;;;;;13.05;81.23;95238.34;5096035;28;20513;-61
2022/11/21 03:52:01;;;;;;;10.02;2.65;;;;;;;12.96;80.51;95234.56;5095964;28;20075;-61
2022/11/21 03:54:29;;;;;;;5.72;2.42;;;;;;;12.82;80.92;95235.53;5095875;28;20044;-61
2022/11/21 03:56:56;;;;;;;7.80;2.13;;;;;;;12.71;81.21;95231.84;5095839;28;20048;-61
2022/11/21 03:59:25;;;;;;;6.45;2.47;;;;;;;12.59;81.13;95232.66;5095761;28;20485;-62
2022/11/21 04:01:52;;;;;;;8.73;2.33;;;;;;;12.48;81.85;95228.97;5095639;28;20064;-61
2022/11/21 04:04:19;;;;;;;12.13;2.13;;;;;;;12.33;80.66;95229.97;5095733;28;20040;-62
2022/11/21 04:06:48;;;;;;;9.27;2.10;;;;;;;12.16;80.65;95216.19;5095847;28;20040;-61
2022/11/21 04:09:15;;;;;;;11.30;2.53;;;;;;;11.93;80.62;95221.16;5095654;28;20105;-61
2022/11/21 04:11:42;;;;;;;8.60;2.28;;;;;;;11.82;81.24;95213.97;5095438;28;20397;-61
2022/11/21 04:14:09;;;;;;;14.50;2.08;;;;;;;11.77;81.64;95216.03;5095580;28;20044;-61
2022/11/21 04:16:37;;;;;;;12.90;2.50;;;;;;;11.71;81.52;95213.81;5095465;28;20432;-61
2022/11/21 04:19:05;;;;;;;17.65;2.78;;;;;;;11.65;80.94;95211.59;5095460;28;20106;-61
2022/11/21 04:21:32;;;;;;;7.30;1.80;;;;;;;11.49;81.62;95209.94;5095211;28;20059;-61
2022/11/21 04:24:01;;;;;;;10.63;2.50;;;;;;;11.34;81.94;95206.50;5094508;28;20050;-61
2022/11/21 04:26:28;;;;;;;15.52;2.28;;;;;;;11.24;82.78;95204.47;5095254;28;20076;-61
2022/11/21 04:28:55;;;;;;;8.10;2.10;;;;;;;11.06;84.92;95195.97;5095315;28;20097;-61
2022/11/21 04:31:23;;;;;;;12.27;2.65;;;;;;;10.96;85.12;95202.72;5095200;28;20052;-61
2022/11/21 04:33:50;;;;;;;11.85;2.00;;;;;;;10.90;84.55;95197.84;5095134;28;20486;-61
2022/11/21 04:36:18;;;;;;;12.20;2.25;;;;;;;10.83;84.05;95208.66;5094983;28;20048;-61
2022/11/21 04:38:45;;;;;;;9.35;2.30;;;;;;;10.75;83.70;95210.91;5095200;28;20080;-61
2022/11/21 04:41:14;;;;;;;8.77;1.83;;;;;;;10.68;83.43;95192.13;5095004;28;20101;-61
2022/11/21 04:43:41;;;;;;;6.72;1.65;;;;;;;10.57;84.85;95195.38;5095019;28;20122;-61
2022/11/21 04:46:08;;;;;;;9.82;2.58;;;;;;;10.43;86.14;95200.56;5094895;28;20052;-61
2022/11/21 04:48:35;;;;;;;13.20;2.15;;;;;;;10.35;86.22;95201.00;5094832;28;20070;-61
2022/11/21 04:51:02;;;;;;;11.68;2.00;;;;;;;10.35;86.25;95208.84;5094795;28;20113;-61
2022/11/21 04:53:29;;;;;;;5.28;2.03;;;;;;;10.30;85.00;95190.81;5094780;28;20044;-61
2022/11/21 04:55:57;;;;;;;3.42;1.80;;;;;;;10.30;84.49;95201.25;5094731;28;20090;-61
2022/11/21 04:58:25;;;;;;;8.82;2.15;;;;;;;10.23;84.68;95185.13;5094716;28;20444;-61
2022/11/21 05:00:53;;;;;;;10.60;2.85;;;;;;;10.25;85.62;95200.72;5094483;28;20425;-61
2022/11/21 05:03:20;;;;;;;9.25;3.10;;;;;;;10.30;85.97;95209.09;5094620;28;20098;-61
2022/11/21 05:05:48;;;;;;;13.35;2.38;;;;;;;10.36;85.64;95197.47;5094551;28;20075;-61
2022/11/21 05:08:15;;;;;;;7.90;1.80;;;;;;;10.32;83.73;95191.56;5094503;28;20048;-61
2022/11/21 05:13:29;;;;;;;8.10;2.30;;;;;;;10.16;84.61;95181.19;5094381;28;20117;-61
2022/11/21 05:15:57;;;;;;;8.70;2.00;;;;;;;10.20;84.72;95176.59;5094333;28;20463;-61
2022/11/21 05:18:27;;;;;;;10.23;3.03;;;;;;;10.21;86.29;95171.28;5094361;28;20062;-61
2022/11/21 05:20:54;;;;;;;12.35;3.30;;;;;;;10.30;86.62;95180.34;5094241;28;20182;-62
2022/11/21 05:23:22;;;;;;;15.27;3.38;;;;;;;10.33;88.22;95174.13;5094273;28;20059;-61
2022/11/21 05:25:49;;;;;;;10.45;2.40;;;;;;;10.35;87.34;95170.47;5094291;28;20048;-61
2022/11/21 05:28:16;;;;;;;14.38;2.42;;;;;;;10.24;85.06;95173.72;5094023;28;20051;-61
2022/11/21 05:30:45;;;;;;;9.15;2.58;;;;;;;10.18;87.07;95168.03;5094146;28;20083;-61
2022/11/21 05:33:12;;;;;;;17.20;2.67;;;;;;;10.06;85.78;95166.97;5094003;28;20055;-61
2022/11/21 05:35:40;;;;;;;12.48;2.95;;;;;;;10.11;87.74;95171.00;5093950;28;20044;-61
2022/11/21 05:38:07;;;;;;;8.38;2.30;;;;;;;10.13;87.78;95163.06;5093952;28;20119;-61
2022/11/21 05:40:36;;;;;;;10.85;3.03;;;;;;;10.25;88.15;95161.50;5093951;28;20097;-61
2022/11/21 05:45:51;;;;;;;12.10;3.67;;;;;;;10.48;88.65;95180.25;5094016;28;20055;-61
2022/11/21 05:48:18;;;;;;;3.13;1.60;;;;;;;10.55;86.36;95185.94;5093793;28;20142;-61
2022/11/21 05:50:48;;;;;;;9.10;3.20;;;;;;;10.57;85.88;95179.69;5093663;28;20047;-61
2022/11/21 05:53:16;;;;;;;13.85;2.67;;;;;;;10.63;85.21;95185.50;5093759;28;20048;-61
2022/11/21 05:55:44;;;;;;;12.27;2.40;;;;;;;10.77;85.58;95182.88;5093665;28;20386;-61
2022/11/21 05:58:11;;;;;;;17.63;2.47;;;;;;;11.49;82.63;95183.75;5093679;28;20048;-62
2022/11/21 06:00:39;;;;;;;12.52;2.35;;;;;;;12.52;78.33;95174.53;5093703;28;20044;-61
2022/11/21 06:03:26;;;;;;;5.40;1.73;;;;;;;13.75;73.53;95175.72;5093310;28;20052;-61
2022/11/21 06:05:59;;;;;;;5.95;2.10;;;;;;;15.07;67.70;95194.06;5093512;28;20048;-61
2022/11/21 06:08:26;;;;;;;10.05;2.20;;;;;;;15.82;64.45;95203.19;5093423;28;20044;-62
2022/11/21 06:10:54;;;;;;;9.18;2.45;;;;;;;16.69;62.98;95212.00;5093228;28;20066;-62
2022/11/21 06:13:24;;;;;;;10.40;1.90;;;;;;;17.80;59.42;95202.66;5093560;28;20047;-62
2022/11/21 06:15:55;;;;;;;6.53;2.00;;;;;;;19.03;55.44;95209.34;5093436;28;20131;-62
2022/11/21 06:18:24;;;;;;;8.02;2.40;;;;;;;20.03;51.93;95215.91;5093323;28;20048;-62
2022/11/21 06:20:51;;;;;;;9.98;2.08;;;;;;;20.88;49.59;95206.69;5093467;28;20482;-62
2022/11/21 06:23:19;;;;;;;6.15;1.90;;;;;;;21.71;47.50;95203.69;5093145;28;20553;-62
2022/11/21 06:25:46;;;;;;;9.55;1.90;;;;;;;22.45;45.55;95202.19;5093223;28;20047;-62
2022/11/21 06:28:14;;;;;;;11.65;2.30;;;;;;;23.09;44.23;95206.84;5093177;28;20391;-63
2022/11/21 06:30:41;;;;;;;11.02;2.47;;;;;;;23.73;43.10;95202.53;5093214;28;20044;-62
2022/11/21 06:33:08;;;;;;;7.68;1.70;;;;;;;24.25;41.75;95202.13;5093212;28;20052;-62
2022/11/21 06:35:39;;;;;;;11.88;2.72;;;;;;;24.85;40.88;95209.53;5093225;28;20140;-62
2022/11/21 06:38:06;;;;;;;10.52;1.90;;;;;;;25.42;39.65;95220.72;5093026;28;20052;-62
2022/11/21 06:40:34;;;;;;;9.90;1.75;;;;;;;25.95;38.34;95222.44;5093052;28;20413;-62
2022/11/21 06:43:01;;;;;;;8.90;2.45;;;;;;;26.47;37.72;95221.59;5092951;28;20048;-62
2022/11/21 06:45:28;;;;;;;9.85;2.40;;;;;;;27.03;36.63;95208.53;5093214;28;20477;-62
2022/11/21 06:47:56;;;;;;;8.38;2.55;;;;;;;27.71;35.72;95209.78;5096050;28;20106;-63
2022/11/21 06:50:23;;;;;;;15.43;2.85;;;;;;;27.85;33.37;95200.78;5097120;28;20481;-62
2022/11/21 06:52:51;;;;;;;14.13;2.97;;;;;;;28.39;33.40;95205.53;5097084;28;20131;-61
2022/11/21 06:55:22;;;;;;;13.25;2.85;;;;;;;28.64;33.33;95210.31;5097083;28;20126;-63
2022/11/21 06:57:49;;;;;;;17.95;3.55;;;;;;;29.06;32.50;95210.16;5097004;28;20047;-62
2022/11/21 07:00:17;;;;;;;11.73;2.60;;;;;;;29.63;31.60;95215.09;5096921;28;20052;-63
2022/11/21 07:02:44;;;;;;;11.02;3.17;;;;;;;30.13;30.81;95220.91;5096808;28;20138;-61
2022/11/21 07:05:11;;;;;;;14.80;2.97;;;;;;;29.91;30.43;95217.69;5096945;28;20465;-61
2022/11/21 07:07:39;;;;;;;21.75;3.03;;;;;;;29.47;30.89;95227.06;5096762;28;20401;-61
2022/11/21 07:10:08;;;;;;;13.50;2.88;;;;;;;30.09;30.93;95225.06;5096567;28;20447;-61
2022/11/21 07:15:21;;;;;;;13.50;3.10;;;;;;;30.57;28.70;95222.97;5096730;28;20109;-61
2022/11/21 07:17:48;;;;;;;12.48;2.50;;;;;;;30.99;28.22;95214.41;5096630;28;20048;-61
2022/11/21 07:20:16;;;;;;;13.45;2.83;;;;;;;30.85;28.90;95213.69;5096547;28;20105;-61
2022/11/21 07:22:43;;;;;;;20.23;3.22;;;;;;;30.31;29.06;95209.44;5096435;28;20051;-61
2022/11/21 07:25:12;;;;;;;9.07;2.40;;;;;;;30.16;30.02;95215.13;5096581;28;20074;-61
2022/11/21 07:27:39;;;;;;;15.18;2.70;;;;;;;29.87;29.58;95220.81;5096438;28;20040;-61
2022/11/21 07:30:08;;;;;;;20.95;2.92;;;;;;;29.58;30.33;95222.13;5096267;28;20075;-61
2022/11/21 07:32:36;;;;;;;11.38;2.50;;;;;;;30.00;29.75;95216.38;5096372;28;20044;-61
2022/11/21 07:35:03;;;;;;;11.68;2.47;;;;;;;29.84;29.05;95215.00;5096374;28;20055;-61
2022/11/21 07:37:30;;;;;;;12.50;2.33;;;;;;;30.14;28.75;95209.91;5096300;28;20048;-61
2022/11/21 07:39:57;;;;;;;17.10;2.30;;;;;;;30.43;28.39;95208.75;5096291;28;20090;-61
2022/11/21 07:42:26;;;;;;;12.45;2.08;;;;;;;30.41;27.18;95210.84;5096186;28;20059;-63
2022/11/21 07:44:53;;;;;;;13.85;2.70;;;;;;;30.54;27.22;95224.25;5096097;28;20137;-61
2022/11/21 07:47:20;;;;;;;12.73;2.13;;;;;;;29.85;27.61;95225.56;5096204;28;20040;-63
2022/11/21 07:49:47;;;;;;;13.13;2.67;;;;;;;29.47;28.70;95228.97;5096111;28;20489;-63
2022/11/21 07:52:15;;;;;;;15.73;2.15;;;;;;;28.83;28.59;95219.44;5096044;28;20044;-63
2022/11/21 07:54:42;;;;;;;9.07;1.90;;;;;;;28.78;28.24;95227.31;5095965;28;20130;-63
2022/11/21 07:57:09;;;;;;;7.57;2.00;;;;;;;28.72;29.33;95231.63;5095890;28;20048;-63
2022/11/21 07:59:38;;;;;;;8.65;2.60;;;;;;;28.70;28.46;95228.31;5094661;28;20068;-62
2022/11/21 08:02:05;;;;;;;13.60;2.25;;;;;;;28.81;28.57;95232.28;5095806;28;20052;-63
2022/11/21 08:04:32;;;;;;;14.40;1.90;;;;;;;28.99;27.89;95241.63;5095831;28;20044;-63
2022/11/21 08:07:01;;;;;;;16.85;2.22;;;;;;;29.33;28.28;95233.53;5095701;28;20105;-63
2022/11/21 08:09:29;;;;;;;8.50;1.70;;;;;;;28.83;28.37;95240.94;5095739;28;20402;-63
2022/11/21 08:11:56;;;;;;;10.13;1.92;;;;;;;28.26;29.11;95247.41;5095434;28;20119;-63
2022/11/21 08:14:24;;;;;;;8.10;2.00;;;;;;;27.33;30.84;95240.53;5095463;28;20060;-62
2022/11/21 08:16:53;;;;;;;11.95;2.35;;;;;;;25.83;32.82;95234.66;5095588;28;20044;-62
2022/11/21 08:19:20;;;;;;;3.92;1.50;;;;;;;24.51;35.86;95234.84;5095454;28;20040;-63
2022/11/21 08:21:48;;;;;;;12.20;2.30;;;;;;;23.32;37.98;95235.47;5095328;28;20051;-62
2022/11/21 08:24:16;;;;;;;8.05;1.80;;;;;;;23.02;37.76;95237.84;5095346;28;20044;-62
2022/11/21 08:26:43;;;;;;;10.07;2.35;;;;;;;22.62;40.60;95237.72;5095422;28;20402;-62
2022/11/21 08:29:11;;;;;;;9.40;2.03;;;;;;;22.20;39.51;95237.63;5095347;28;20098;-62
2022/11/21 08:31:41;;;;;;;12.98;2.13;;;;;;;21.96;41.35;95235.72;5095243;28;20044;-62
2022/11/21 08:34:11;;;;;;;7.80;1.80;;;;;;;21.62;41.77;95237.41;5095290;28;20052;-62
2022/11/21 08:36:38;;;;;;;10.77;2.20;;;;;;;21.29;41.62;95235.41;5095207;28;20044;-62
2022/11/21 08:39:06;;;;;;;9.10;2.22;;;;;;;21.24;43.65;95240.34;5095269;28;20464;-62
2022/11/21 08:44:18;;;;;;;14.43;1.80;;;;;;;20.46;43.47;95234.75;5095059;28;20055;-62
2022/11/21 08:46:45;;;;;;;9.95;2.03;;;;;;;20.47;46.30;95238.25;5094966;28;20078;-62
2022/11/21 08:49:14;;;;;;;11.13;1.70;;;;;;;20.49;45.45;95241.56;5095186;28;20044;-62
2022/11/21 08:51:42;;;;;;;7.10;1.60;;;;;;;20.35;44.42;95250.91;5094876;28;20040;-62
2022/11/21 08:54:10;;;;;;;8.27;1.88;;;;;;;20.28;46.73;95245.34;5094958;28;20055;-62
2022/11/21 08:56:37;;;;;;;10.88;1.85;;;;;;;20.29;45.47;95241.72;5094810;28;20044;-62
2022/11/21 08:59:04;;;;;;;15.55;1.92;;;;;;;20.32;45.66;95244.09;5094542;28;20075;-62
2022/11/21 09:01:32;;;;;;;10.35;1.80;;;;;;;20.35;44.64;95238.47;5094664;28;20063;-62
2022/11/21 09:03:59;;;;;;;11.77;1.60;;;;;;;20.39;44.21;95244.31;5094533;28;20432;-62
2022/11/21 09:06:28;;;;;;;10.38;1.50;;;;;;;20.29;44.01;95247.03;5094527;28;20115;-62
2022/11/21 09:08:55;;;;;;;8.07;1.75;;;;;;;20.33;44.52;95251.91;5094430;28;20079;-62
2022/11/21 09:11:23;;;;;;;15.50;1.50;;;;;;;20.38;43.06;95247.97;5093968;28;20513;-62
2022/11/21 09:19:16;;;;;;;10.77;1.50;;;;;;;20.36;41.46;95255.22;5094321;28;20189;-62
2022/11/21 09:21:45;;;;;;;6.53;1.30;;;;;;;20.36;41.81;95258.72;5094364;28;20050;-62
2022/11/21 09:24:12;;;;;;;4.80;1.40;;;;;;;20.15;42.24;95246.56;5094171;28;20484;-62
2022/11/21 09:26:40;;;;;;;10.35;1.65;;;;;;;20.13;42.33;95247.69;5094145;28;20135;-62
2022/11/21 09:29:09;;;;;;;10.25;1.50;;;;;;;19.61;42.50;95254.34;5094093;28;20073;-62
2022/11/21 09:31:37;;;;;;;4.70;1.60;;;;;;;19.43;44.28;95244.53;5094006;28;20051;-62
2022/11/21 09:34:05;;;;;;;10.23;1.85;;;;;;;19.32;44.06;95241.06;5094060;28;20515;-61
2022/11/21 09:36:32;;;;;;;4.35;1.00;;;;;;;19.23;45.41;95244.56;5094003;28;20059;-62
2022/11/21 09:39:01;;;;;;;6.28;1.33;;;;;;;19.11;45.79;95246.56;5094035;28;20075;-62
2022/11/21 09:41:52;;;;;;;4.63;1.60;;;;;;;18.96;45.79;95250.63;5093857;28;20059;-62
2022/11/21 09:44:46;;;;;;;6.75;1.88;;;;;;;18.83;45.30;95246.44;5093654;28;20076;-62
2022/11/21 09:47:21;;;;;;;13.48;1.85;;;;;;;18.85;46.43;95248.97;5093997;28;20056;-62
2022/11/21 09:49:53;;;;;;;8.05;1.20;;;;;;;18.88;44.72;95252.16;5093804;28;20478;-62
2022/11/21 09:52:26;;;;;;;8.07;1.50;;;;;;;18.90;44.60;95252.03;5093707;28;20079;-62
2022/11/21 09:55:01;;;;;;;8.35;1.20;;;;;;;19.03;45.72;95249.88;5093683;28;20067;-61
2022/11/21 09:57:28;;;;;;;6.22;1.63;;;;;;;19.10;45.62;95249.34;5093670;28;20485;-62
2022/11/21 09:59:56;;;;;;;5.10;1.00;;;;;;;19.23;43.94;95247.22;5093658;28;20539;-61
2022/11/21 10:02:25;;;;;;;7.05;1.33;;;;;;;19.32;42.32;95249.03;5093434;28;20083;-62
2022/11/21 10:04:53;;;;;;;4.90;1.40;;;;;;;19.29;41.76;95240.50;5093572;28;20043;-62
2022/11/21 10:07:27;;;;;;;5.82;0.95;;;;;;;19.14;41.85;95234.88;5093380;28;20078;-62
2022/11/21 10:10:24;;;;;;;7.93;1.30;;;;;;;19.06;40.96;95236.34;5093117;28;20135;-62
2022/11/21 10:13:06;;;;;;;7.18;1.05;;;;;;;18.98;41.90;95230.94;5091925;28;20051;-62
2022/11/21 10:15:45;;;;;;;5.65;0.95;;;;;;;18.73;41.65;95237.69;5093367;28;20087;-61
2022/11/21 10:18:45;;;;;;;7.32;1.30;;;;;;;18.59;42.10;95231.84;5093346;28;20044;-62
2022/11/21 10:21:26;;;;;;;9.50;1.30;;;;;;;18.29;43.38;95228.34;5092472;28;20498;-62
2022/11/21 10:24:20;;;;;;;8.55;1.23;;;;;;;18.20;43.78;95222.06;5093097;28;20048;-62
2022/11/21 10:26:53;;;;;;;5.85;0.85;;;;;;;18.34;43.19;95220.84;5087179;28;20197;-62
2022/11/21 10:29:25;;;;;;;1.63;0.90;;;;;;;18.50;43.42;95224.72;5093398;28;20066;-62
2022/11/21 10:31:56;;;;;;;11.07;1.10;;;;;;;18.82;43.95;95228.91;5093251;28;20472;-62
2022/11/21 10:34:25;;;;;;;;;;;;;;;19.11;42.94;95225.38;5093510;28;20052;-62
2022/11/21 10:36:57;;;;;;;6.88;1.20;;;;;;;19.30;42.78;95232.41;5093133;28;19923;-62
2022/11/21 10:39:33;;;;;;;8.68;1.00;;;;;;;19.52;41.75;95225.09;5093108;28;20048;-62
2022/11/21 10:42:10;;;;;;;5.20;0.95;;;;;;;19.61;41.74;95226.03;5093108;28;20089;-61
2022/11/21 10:47:27;;;;;;;3.95;1.30;;;;;;;19.79;41.59;95228.75;5093099;28;20055;-62
2022/11/21 10:50:11;;;;;;;1.90;0.90;;;;;;;19.70;40.47;95227.81;5093033;28;20059;-62
2022/11/21 10:52:45;;;;;;;4.82;0.90;;;;;;;19.72;40.45;95221.50;5093048;28;20044;-62
2022/11/21 10:55:14;;;;;;;2.28;0.85;;;;;;;19.62;40.78;95219.72;5092970;28;20052;-62
2022/11/21 10:57:45;;;;;;;4.13;1.20;;;;;;;19.41;40.77;95236.72;5092912;28;20056;-61
2022/11/21 11:00:30;;;;;;;4.43;1.15;;;;;;;19.23;41.12;95223.38;5092860;28;20090;-62
2022/11/21 11:03:07;;;;;;;6.03;1.00;;;;;;;18.99;41.00;95224.66;5092869;28;20502;-62
2022/11/21 11:05:36;;;;;;;4.03;1.00;;;;;;;18.93;41.57;95220.78;5092906;28;20044;-62
2022/11/21 11:08:06;;;;;;;2.88;1.15;;;;;;;18.79;41.41;95226.53;5092847;28;20044;-62
2022/11/21 11:10:35;;;;;;;5.88;1.40;;;;;;;18.74;42.29;95221.66;5092651;28;20527;-62
2022/11/21 11:16:04;;;;;;;5.47;1.13;;;;;;;18.73;42.73;95216.50;5092893;28;20054;-62
2022/11/21 11:18:34;;;;;;;4.60;1.38;;;;;;;18.84;42.36;95221.63;5092688;28;20077;-62
2022/11/21 11:21:15;;;;;;;6.57;1.13;;;;;;;18.92;42.47;95221.75;5092842;28;20391;-62
2022/11/21 11:23:42;;;;;;;3.40;1.20;;;;;;;18.92;42.88;95210.31;5092668;28;20139;-61
2022/11/21 11:26:24;;;;;;;3.05;1.00;;;;;;;18.93;42.05;95218.13;5092764;28;20095;-62
2022/11/21 11:28:54;;;;;;;5.32;1.40;;;;;;;19.06;42.42;95212.50;5092606;28;20084;-62
2022/11/21 11:31:22;;;;;;;6.35;0.90;;;;;;;19.01;42.48;95217.41;5092802;28;20048;-61
2022/11/21 11:33:55;;;;;;;2.88;0.75;;;;;;;19.03;43.76;95218.09;5095072;28;20453;-61
2022/11/21 11:36:36;;;;;;;5.00;1.05;;;;;;;19.00;41.43;95217.56;5096313;28;20044;-61
2022/11/21 11:39:14;;;;;;;3.13;0.90;;;;;;;18.97;41.29;95215.19;5096103;28;20101;-61
2022/11/21 11:47:55;;;;;;;2.35;0.98;;;;;;;18.77;41.87;95220.53;5096145;28;20046;-62
2022/11/21 11:50:26;;;;;;;2.20;0.90;;;;;;;18.68;42.09;95220.41;5096292;28;20113;-62
2022/11/21 11:53:01;;;;;;;2.53;0.55;;;;;;;18.56;41.94;95227.66;5096082;28;20055;-62
2022/11/21 11:55:36;;;;;;;1.45;0.50;;;;;;;18.34;41.62;95223.50;5095936;28;20482;-62
2022/11/21 11:58:08;;;;;;;3.80;0.68;;;;;;;18.16;41.92;95231.28;5095923;28;20501;-61
2022/11/21 12:00:42;;;;;;;4.20;1.23;;;;;;;18.20;43.11;95222.06;5095881;28;20044;-61
2022/11/21 12:03:15;;;;;;;2.65;0.88;;;;;;;18.17;42.85;95220.56;5095741;28;20155;-61
2022/11/21 12:05:59;;;;;;;5.03;1.63;;;;;;;18.17;43.31;95211.78;5095695;28;20044;-62
2022/11/21 12:08:34;;;;;;;5.63;1.27;;;;;;;18.02;42.85;95213.94;5095706;28;20078;-61
2022/11/21 12:14:05;;;;;;;7.28;1.90;;;;;;;17.97;43.62;95208.25;5095780;28;20054;-61